sensor_id;sensor_type;location;lat;lon;timestamp;pressure;altitude;pressure_sealevel;temperature;humidity
9077;BME280;4574;51.072;17.174;2023-03-21T00:01:49;100170.16;;;11.55;100.00
9077;BME280;4574;51.072;17.174;2023-03-21T00:04:18;100166.97;;;11.51;100.00
9077;BME280;4574;51.072;17.174;2023-03-21T00:06:47;100171.44;;;11.51;100.00
9077;BME280;4574;51.072;17.174;2023-03-21T00:09:16;100146.03;;;11.40;100.00
9077;BME280;4574;51.072;17.174;2023-03-21T00:11:46;100154.84;;;11.49;100.00
9077;BME280;4574;51.072;17.174;2023-03-21T00:14:15;100161.13;;;11.48;100.00
9077;BME280;4574;51.072;17.174;2023-03-21T00:16:47;100159.03;;;11.51;100.00
9077;BME280;4574;51.072;17.174;2023-03-21T00:19:17;100149.41;;;11.50;100.00
9077;BME280;4574;51.072;17.174;2023-03-21T00:21:46;100149.41;;;11.50;100.00
9077;BME280;4574;51.072;17.174;2023-03-21T00:24:33;100137.16;;;11.49;100.00
9077;BME280;4574;51.072;17.174;2023-03-21T00:27:04;100141.59;;;11.49;100.00
9077;BME280;4574;51.072;17.174;2023-03-21T00:29:53;100142.44;;;11.49;100.00
9077;BME280;4574;51.072;17.174;2023-03-21T00:32:22;100142.28;;;11.51;100.00
9077;BME280;4574;51.072;17.174;2023-03-21T00:34:50;100133.66;;;11.49;100.00
9077;BME280;4574;51.072;17.174;2023-03-21T00:37:39;100134.63;;;11.48;100.00
9077;BME280;4574;51.072;17.174;2023-03-21T00:40:08;100134.44;;;11.41;100.00
9077;BME280;4574;51.072;17.174;2023-03-21T00:43:02;100137.91;;;11.42;100.00
9077;BME280;4574;51.072;17.174;2023-03-21T00:45:30;100124.97;;;11.39;100.00
9077;BME280;4574;51.072;17.174;2023-03-21T00:47:59;100135.56;;;11.39;100.00
9077;BME280;4574;51.072;17.174;2023-03-21T00:50:28;100130.25;;;11.39;100.00
9077;BME280;4574;51.072;17.174;2023-03-21T00:52:58;100140.84;;;11.39;100.00
9077;BME280;4574;51.072;17.174;2023-03-21T00:55:27;100126.41;;;11.33;100.00
9077;BME280;4574;51.072;17.174;2023-03-21T00:57:55;100119.59;;;11.31;100.00
9077;BME280;4574;51.072;17.174;2023-03-21T01:00:30;100128.22;;;11.33;100.00
9077;BME280;4574;51.072;17.174;2023-03-21T01:02:59;100125.75;;;11.31;100.00
9077;BME280;4574;51.072;17.174;2023-03-21T01:05:49;100128.53;;;11.30;100.00
9077;BME280;4574;51.072;17.174;2023-03-21T01:08:35;100122.56;;;11.28;100.00
9077;BME280;4574;51.072;17.174;2023-03-21T01:11:20;100118.22;;;11.27;100.00
9077;BME280;4574;51.072;17.174;2023-03-21T01:13:49;100103.72;;;11.13;100.00
9077;BME280;4574;51.072;17.174;2023-03-21T01:16:32;100127.78;;;11.20;100.00
9077;BME280;4574;51.072;17.174;2023-03-21T01:19:01;100131.41;;;11.19;100.00
9077;BME280;4574;51.072;17.174;2023-03-21T01:21:33;100133.88;;;11.12;100.00
9077;BME280;4574;51.072;17.174;2023-03-21T01:24:02;100138.38;;;11.02;100.00
9077;BME280;4574;51.072;17.174;2023-03-21T01:26:30;100136.94;;;10.90;100.00
9077;BME280;4574;51.072;17.174;2023-03-21T01:28:59;100145.47;;;10.84;100.00
9077;BME280;4574;51.072;17.174;2023-03-21T01:31:27;100123.00;;;10.71;100.00
9077;BME280;4574;51.072;17.174;2023-03-21T01:33:58;100131.94;;;10.70;100.00
9077;BME280;4574;51.072;17.174;2023-03-21T01:36:26;100128.22;;;10.63;100.00
9077;BME280;4574;51.072;17.174;2023-03-21T01:38:55;100122.25;;;10.61;100.00
9077;BME280;4574;51.072;17.174;2023-03-21T01:41:25;100125.59;;;10.63;100.00
9077;BME280;4574;51.072;17.174;2023-03-21T01:44:13;100120.00;;;10.66;100.00
9077;BME280;4574;51.072;17.174;2023-03-21T01:46:43;100111.66;;;10.61;100.00
9077;BME280;4574;51.072;17.174;2023-03-21T01:49:38;100112.44;;;10.71;100.00
9077;BME280;4574;51.072;17.174;2023-03-21T01:52:14;100104.00;;;10.75;100.00
9077;BME280;4574;51.072;17.174;2023-03-21T01:55:02;100103.41;;;10.81;100.00
9077;BME280;4574;51.072;17.174;2023-03-21T01:57:36;100103.97;;;10.85;100.00
9077;BME280;4574;51.072;17.174;2023-03-21T02:00:25;100103.97;;;10.85;100.00
9077;BME280;4574;51.072;17.174;2023-03-21T02:02:56;100101.16;;;10.86;100.00
9077;BME280;4574;51.072;17.174;2023-03-21T02:05:51;100100.31;;;10.86;100.00
9077;BME280;4574;51.072;17.174;2023-03-21T02:08:22;100104.63;;;10.87;100.00
9077;BME280;4574;51.072;17.174;2023-03-21T02:11:05;100112.59;;;10.87;100.00
9077;BME280;4574;51.072;17.174;2023-03-21T02:13:35;100116.22;;;10.86;100.00
9077;BME280;4574;51.072;17.174;2023-03-21T02:16:10;100111.06;;;10.84;100.00
9077;BME280;4574;51.072;17.174;2023-03-21T02:18:45;100113.19;;;10.81;100.00
9077;BME280;4574;51.072;17.174;2023-03-21T02:24:42;100116.81;;;10.80;100.00
9077;BME280;4574;51.072;17.174;2023-03-21T02:27:31;100119.59;;;10.78;100.00
9077;BME280;4574;51.072;17.174;2023-03-21T02:30:26;100120.88;;;10.74;100.00
9077;BME280;4574;51.072;17.174;2023-03-21T02:33:45;100125.50;;;10.72;100.00
9077;BME280;4574;51.072;17.174;2023-03-21T02:36:21;100129.44;;;10.68;100.00
9077;BME280;4574;51.072;17.174;2023-03-21T02:39:07;100134.03;;;10.66;100.00
9077;BME280;4574;51.072;17.174;2023-03-21T02:41:46;100123.91;;;10.62;100.00
9077;BME280;4574;51.072;17.174;2023-03-21T02:44:21;100127.00;;;10.58;100.00
9077;BME280;4574;51.072;17.174;2023-03-21T02:46:56;100130.16;;;10.44;100.00
9077;BME280;4574;51.072;17.174;2023-03-21T02:49:36;100117.97;;;10.33;100.00
9077;BME280;4574;51.072;17.174;2023-03-21T02:52:14;100126.88;;;10.32;100.00
9077;BME280;4574;51.072;17.174;2023-03-21T02:55:06;100143.34;;;10.26;100.00
9077;BME280;4574;51.072;17.174;2023-03-21T02:57:41;100136.69;;;10.22;100.00
9077;BME280;4574;51.072;17.174;2023-03-21T03:00:15;100132.38;;;10.21;100.00
9077;BME280;4574;51.072;17.174;2023-03-21T03:02:46;100116.50;;;10.21;100.00
9077;BME280;4574;51.072;17.174;2023-03-21T03:05:27;100140.03;;;10.15;100.00
9077;BME280;4574;51.072;17.174;2023-03-21T03:08:04;100139.06;;;10.16;100.00
9077;BME280;4574;51.072;17.174;2023-03-21T03:10:48;100132.81;;;10.07;100.00
9077;BME280;4574;51.072;17.174;2023-03-21T03:13:29;100139.78;;;10.08;100.00
9077;BME280;4574;51.072;17.174;2023-03-21T03:16:08;100132.13;;;10.05;100.00
9077;BME280;4574;51.072;17.174;2023-03-21T03:18:43;100111.94;;;10.04;100.00
9077;BME280;4574;51.072;17.174;2023-03-21T03:21:17;100124.00;;;10.16;100.00
9077;BME280;4574;51.072;17.174;2023-03-21T03:23:50;100126.34;;;10.19;100.00
9077;BME280;4574;51.072;17.174;2023-03-21T03:26:24;100116.63;;;10.20;100.00
9077;BME280;4574;51.072;17.174;2023-03-21T03:28:56;100126.09;;;10.22;100.00
9077;BME280;4574;51.072;17.174;2023-03-21T03:31:30;100138.34;;;10.23;100.00
9077;BME280;4574;51.072;17.174;2023-03-21T03:34:04;100132.22;;;10.23;100.00
9077;BME280;4574;51.072;17.174;2023-03-21T03:36:36;100130.25;;;10.25;100.00
9077;BME280;4574;51.072;17.174;2023-03-21T03:39:08;100124.97;;;10.25;100.00
9077;BME280;4574;51.072;17.174;2023-03-21T03:41:44;100143.06;;;10.29;100.00
9077;BME280;4574;51.072;17.174;2023-03-21T03:44:34;100132.47;;;10.29;100.00
9077;BME280;4574;51.072;17.174;2023-03-21T03:47:06;100125.50;;;10.28;100.00
9077;BME280;4574;51.072;17.174;2023-03-21T03:49:45;100128.84;;;10.30;100.00
9077;BME280;4574;51.072;17.174;2023-03-21T03:52:17;100137.47;;;10.32;100.00
9077;BME280;4574;51.072;17.174;2023-03-21T03:54:48;100141.78;;;10.33;100.00
9077;BME280;4574;51.072;17.174;2023-03-21T03:57:20;100138.44;;;10.31;100.00
9077;BME280;4574;51.072;17.174;2023-03-21T03:59:48;100136.50;;;10.33;100.00
9077;BME280;4574;51.072;17.174;2023-03-21T04:02:17;100139.13;;;10.33;100.00
9077;BME280;4574;51.072;17.174;2023-03-21T04:04:46;100133.28;;;10.30;100.00
9077;BME280;4574;51.072;17.174;2023-03-21T04:07:19;100136.63;;;10.32;100.00
9077;BME280;4574;51.072;17.174;2023-03-21T04:09:48;100140.78;;;10.34;100.00
9077;BME280;4574;51.072;17.174;2023-03-21T04:12:19;100148.03;;;10.32;100.00
9077;BME280;4574;51.072;17.174;2023-03-21T04:14:48;100139.94;;;10.34;100.00
9077;BME280;4574;51.072;17.174;2023-03-21T04:17:18;100140.78;;;10.34;100.00
9077;BME280;4574;51.072;17.174;2023-03-21T04:19:47;100153.19;;;10.34;100.00
9077;BME280;4574;51.072;17.174;2023-03-21T04:22:28;100158.63;;;10.32;100.00
9077;BME280;4574;51.072;17.174;2023-03-21T04:24:59;100148.63;;;10.26;100.00
9077;BME280;4574;51.072;17.174;2023-03-21T04:27:30;100154.75;;;10.27;100.00
9077;BME280;4574;51.072;17.174;2023-03-21T04:29:59;100151.28;;;10.26;100.00
9077;BME280;4574;51.072;17.174;2023-03-21T04:32:28;100155.19;;;10.22;100.00
9077;BME280;4574;51.072;17.174;2023-03-21T04:34:59;100151.72;;;10.22;100.00
9077;BME280;4574;51.072;17.174;2023-03-21T04:37:28;100147.69;;;10.18;100.00
9077;BME280;4574;51.072;17.174;2023-03-21T04:40:00;100156.44;;;10.18;100.00
9077;BME280;4574;51.072;17.174;2023-03-21T04:42:34;100154.78;;;10.17;100.00
9077;BME280;4574;51.072;17.174;2023-03-21T04:45:06;100153.78;;;10.18;100.00
9077;BME280;4574;51.072;17.174;2023-03-21T04:47:34;100158.94;;;10.20;100.00
9077;BME280;4574;51.072;17.174;2023-03-21T04:50:04;100155.47;;;10.19;100.00
9077;BME280;4574;51.072;17.174;2023-03-21T04:52:32;100151.00;;;10.20;100.00
9077;BME280;4574;51.072;17.174;2023-03-21T04:55:01;100155.47;;;10.19;100.00
9077;BME280;4574;51.072;17.174;2023-03-21T04:57:30;100158.69;;;10.13;100.00
9077;BME280;4574;51.072;17.174;2023-03-21T05:00:00;100163.97;;;10.13;100.00
9077;BME280;4574;51.072;17.174;2023-03-21T05:02:29;100155.06;;;10.14;100.00
9077;BME280;4574;51.072;17.174;2023-03-21T05:04:57;100164.66;;;10.15;100.00
9077;BME280;4574;51.072;17.174;2023-03-21T05:07:26;100157.72;;;10.14;100.00
9077;BME280;4574;51.072;17.174;2023-03-21T05:09:54;100160.50;;;10.13;100.00
9077;BME280;4574;51.072;17.174;2023-03-21T05:12:23;100159.38;;;10.15;100.00
9077;BME280;4574;51.072;17.174;2023-03-21T05:14:52;100169.94;;;10.15;100.00
9077;BME280;4574;51.072;17.174;2023-03-21T05:17:22;100168.16;;;10.16;100.00
9077;BME280;4574;51.072;17.174;2023-03-21T05:19:51;100161.19;;;10.15;100.00
9077;BME280;4574;51.072;17.174;2023-03-21T05:22:20;100170.63;;;10.17;100.00
9077;BME280;4574;51.072;17.174;2023-03-21T05:24:50;100170.63;;;10.17;100.00
9077;BME280;4574;51.072;17.174;2023-03-21T05:27:21;100168.84;;;10.18;100.00
9077;BME280;4574;51.072;17.174;2023-03-21T05:30:04;100161.03;;;10.16;100.00
9077;BME280;4574;51.072;17.174;2023-03-21T05:32:34;100168.16;;;10.16;100.00
9077;BME280;4574;51.072;17.174;2023-03-21T05:35:04;100167.31;;;10.15;100.00
9077;BME280;4574;51.072;17.174;2023-03-21T05:37:33;100178.72;;;10.16;100.00
9077;BME280;4574;51.072;17.174;2023-03-21T05:40:01;100182.88;;;10.18;100.00
9077;BME280;4574;51.072;17.174;2023-03-21T05:42:31;100177.88;;;10.15;100.00
9077;BME280;4574;51.072;17.174;2023-03-21T05:45:00;100170.25;;;10.12;100.00
9077;BME280;4574;51.072;17.174;2023-03-21T05:47:29;100182.88;;;10.18;100.00
9077;BME280;4574;51.072;17.174;2023-03-21T05:50:00;100185.41;;;10.20;100.00
9077;BME280;4574;51.072;17.174;2023-03-21T05:52:29;100186.25;;;10.20;100.00
9077;BME280;4574;51.072;17.174;2023-03-21T05:54:57;100187.91;;;10.21;100.00
9077;BME280;4574;51.072;17.174;2023-03-21T05:57:27;100181.91;;;10.19;100.00
9077;BME280;4574;51.072;17.174;2023-03-21T05:59:56;100188.19;;;10.18;100.00
9077;BME280;4574;51.072;17.174;2023-03-21T06:02:24;100181.22;;;10.17;100.00
9077;BME280;4574;51.072;17.174;2023-03-21T06:04:53;100179.72;;;10.15;100.00
9077;BME280;4574;51.072;17.174;2023-03-21T06:07:24;100189.59;;;10.22;100.00
9077;BME280;4574;51.072;17.174;2023-03-21T06:09:52;100191.25;;;10.23;100.00
9077;BME280;4574;51.072;17.174;2023-03-21T06:12:21;100192.91;;;10.24;100.00
9077;BME280;4574;51.072;17.174;2023-03-21T06:14:49;100195.41;;;10.26;100.00
9077;BME280;4574;51.072;17.174;2023-03-21T06:17:19;100196.53;;;10.23;100.00
9077;BME280;4574;51.072;17.174;2023-03-21T06:19:52;100199.03;;;10.25;100.00
9077;BME280;4574;51.072;17.174;2023-03-21T06:22:21;100195.56;;;10.24;100.00
9077;BME280;4574;51.072;17.174;2023-03-21T06:24:52;100198.22;;;10.24;100.00
9077;BME280;4574;51.072;17.174;2023-03-21T06:27:20;100197.22;;;10.25;100.00
9077;BME280;4574;51.072;17.174;2023-03-21T06:29:49;100199.19;;;10.23;100.00
9077;BME280;4574;51.072;17.174;2023-03-21T06:32:18;100194.19;;;10.20;100.00
9077;BME280;4574;51.072;17.174;2023-03-21T06:34:47;100204.31;;;10.25;100.00
9077;BME280;4574;51.072;17.174;2023-03-21T06:37:16;100199.47;;;10.20;100.00
9077;BME280;4574;51.072;17.174;2023-03-21T06:39:44;100200.28;;;10.21;100.00
9077;BME280;4574;51.072;17.174;2023-03-21T06:42:15;100199.88;;;10.25;100.00
9077;BME280;4574;51.072;17.174;2023-03-21T06:44:44;100211.16;;;10.27;100.00
9077;BME280;4574;51.072;17.174;2023-03-21T06:47:12;100212.25;;;10.25;100.00
9077;BME280;4574;51.072;17.174;2023-03-21T06:49:42;100210.06;;;10.20;100.00
9077;BME280;4574;51.072;17.174;2023-03-21T06:52:10;100209.09;;;10.21;100.00
9077;BME280;4574;51.072;17.174;2023-03-21T06:54:39;100214.09;;;10.24;100.00
9077;BME280;4574;51.072;17.174;2023-03-21T06:57:08;100218.22;;;10.27;100.00
9077;BME280;4574;51.072;17.174;2023-03-21T06:59:39;100223.41;;;10.28;100.00
9077;BME280;4574;51.072;17.174;2023-03-21T07:02:09;100225.88;;;10.30;100.00
9077;BME280;4574;51.072;17.174;2023-03-21T07:04:38;100231.34;;;10.28;100.00
9077;BME280;4574;51.072;17.174;2023-03-21T07:07:06;100239.97;;;10.21;100.00
9077;BME280;4574;51.072;17.174;2023-03-21T07:09:35;100234.69;;;10.21;100.00
9077;BME280;4574;51.072;17.174;2023-03-21T07:12:04;100231.34;;;10.19;100.00
9077;BME280;4574;51.072;17.174;2023-03-21T07:14:33;100235.25;;;10.15;100.00
9077;BME280;4574;51.072;17.174;2023-03-21T07:17:10;100237.75;;;10.16;100.00
9077;BME280;4574;51.072;17.174;2023-03-21T07:19:40;100235.66;;;10.20;100.00
9077;BME280;4574;51.072;17.174;2023-03-21T07:22:10;100239.56;;;10.25;100.00
9077;BME280;4574;51.072;17.174;2023-03-21T07:24:39;100227.16;;;10.26;100.00
9077;BME280;4574;51.072;17.174;2023-03-21T07:27:08;100239.28;;;10.28;100.00
9077;BME280;4574;51.072;17.174;2023-03-21T07:29:36;100236.34;;;10.31;100.00
9077;BME280;4574;51.072;17.174;2023-03-21T07:32:05;100246.63;;;10.34;100.00
9077;BME280;4574;51.072;17.174;2023-03-21T07:34:35;100239.97;;;10.30;100.00
9077;BME280;4574;51.072;17.174;2023-03-21T07:37:04;100244.97;;;10.33;100.00
9077;BME280;4574;51.072;17.174;2023-03-21T07:39:33;100242.16;;;10.35;100.00
9077;BME280;4574;51.072;17.174;2023-03-21T07:42:02;100248.31;;;10.35;100.00
9077;BME280;4574;51.072;17.174;2023-03-21T07:44:32;100243.00;;;10.35;100.00
9077;BME280;4574;51.072;17.174;2023-03-21T07:47:01;100252.44;;;10.38;100.00
9077;BME280;4574;51.072;17.174;2023-03-21T07:49:30;100255.38;;;10.35;100.00
9077;BME280;4574;51.072;17.174;2023-03-21T07:52:00;100245.50;;;10.37;100.00
9077;BME280;4574;51.072;17.174;2023-03-21T07:54:31;100258.03;;;10.35;100.00
9077;BME280;4574;51.072;17.174;2023-03-21T07:56:59;100251.66;;;10.28;100.00
9077;BME280;4574;51.072;17.174;2023-03-21T07:59:28;100251.38;;;10.31;100.00
9077;BME280;4574;51.072;17.174;2023-03-21T08:01:56;100259.00;;;10.34;100.00
9077;BME280;4574;51.072;17.174;2023-03-21T08:04:25;100264.88;;;10.37;100.00
9077;BME280;4574;51.072;17.174;2023-03-21T08:06:54;100249.13;;;10.36;100.00
9077;BME280;4574;51.072;17.174;2023-03-21T08:09:24;100260.16;;;10.31;100.00
9077;BME280;4574;51.072;17.174;2023-03-21T08:11:55;100266.41;;;10.30;100.00
9077;BME280;4574;51.072;17.174;2023-03-21T08:14:24;100261.94;;;10.31;100.00
9077;BME280;4574;51.072;17.174;2023-03-21T08:16:52;100264.19;;;10.35;100.00
9077;BME280;4574;51.072;17.174;2023-03-21T08:19:21;100245.25;;;10.30;100.00
9077;BME280;4574;51.072;17.174;2023-03-21T08:21:50;100244.00;;;10.34;100.00
9077;BME280;4574;51.072;17.174;2023-03-21T08:24:19;100258.03;;;10.44;100.00
9077;BME280;4574;51.072;17.174;2023-03-21T08:26:49;100257.72;;;10.47;100.00
9077;BME280;4574;51.072;17.174;2023-03-21T08:29:18;100264.09;;;10.54;100.00
9077;BME280;4574;51.072;17.174;2023-03-21T08:31:47;100260.31;;;10.57;100.00
9077;BME280;4574;51.072;17.174;2023-03-21T08:34:16;100267.56;;;10.55;100.00
9077;BME280;4574;51.072;17.174;2023-03-21T08:36:45;100256.47;;;10.42;100.00
9077;BME280;4574;51.072;17.174;2023-03-21T08:39:14;100259.00;;;10.43;100.00
9077;BME280;4574;51.072;17.174;2023-03-21T08:41:43;100250.06;;;10.44;100.00
9077;BME280;4574;51.072;17.174;2023-03-21T08:44:13;100271.34;;;10.52;100.00
9077;BME280;4574;51.072;17.174;2023-03-21T08:46:43;100269.97;;;10.48;100.00
9077;BME280;4574;51.072;17.174;2023-03-21T08:49:14;100284.72;;;10.51;100.00
9077;BME280;4574;51.072;17.174;2023-03-21T08:51:42;100288.91;;;10.53;100.00
9077;BME280;4574;51.072;17.174;2023-03-21T08:54:18;100289.19;;;10.50;100.00
9077;BME280;4574;51.072;17.174;2023-03-21T08:56:47;100295.31;;;10.51;100.00
9077;BME280;4574;51.072;17.174;2023-03-21T08:59:17;100278.38;;;10.34;100.00
9077;BME280;4574;51.072;17.174;2023-03-21T09:01:46;100291.16;;;10.48;100.00
9077;BME280;4574;51.072;17.174;2023-03-21T09:04:15;100292.41;;;10.44;100.00
9077;BME280;4574;51.072;17.174;2023-03-21T09:06:45;100296.50;;;10.20;100.00
9077;BME280;4574;51.072;17.174;2023-03-21T09:09:15;100287.47;;;10.13;100.00
9077;BME280;4574;51.072;17.174;2023-03-21T09:11:44;100298.75;;;10.15;100.00
9077;BME280;4574;51.072;17.174;2023-03-21T09:14:12;100297.91;;;10.14;100.00
9077;BME280;4574;51.072;17.174;2023-03-21T09:16:43;100300.69;;;10.22;100.00
9077;BME280;4574;51.072;17.174;2023-03-21T09:19:12;100304.72;;;10.26;100.00
9077;BME280;4574;51.072;17.174;2023-03-21T09:21:41;100289.97;;;10.14;100.00
9077;BME280;4574;51.072;17.174;2023-03-21T09:24:10;100301.22;;;10.16;100.00
9077;BME280;4574;51.072;17.174;2023-03-21T09:26:39;100278.41;;;10.15;100.00
9077;BME280;4574;51.072;17.174;2023-03-21T09:29:10;100292.72;;;10.32;100.00
9077;BME280;4574;51.072;17.174;2023-03-21T09:31:38;100291.72;;;10.42;100.00
9077;BME280;4574;51.072;17.174;2023-03-21T09:34:11;100280.00;;;10.45;100.00
9077;BME280;4574;51.072;17.174;2023-03-21T09:36:40;100297.81;;;10.52;100.00
9077;BME280;4574;51.072;17.174;2023-03-21T09:39:10;100289.47;;;10.47;100.00
9077;BME280;4574;51.072;17.174;2023-03-21T09:42:00;100298.94;;;10.50;100.00
9077;BME280;4574;51.072;17.174;2023-03-21T09:44:50;100297.38;;;10.57;100.00
9077;BME280;4574;51.072;17.174;2023-03-21T09:47:24;100295.91;;;10.71;100.00
9077;BME280;4574;51.072;17.174;2023-03-21T09:49:59;100295.50;;;10.76;100.00
9077;BME280;4574;51.072;17.174;2023-03-21T09:52:44;100293.25;;;10.81;100.00
9077;BME280;4574;51.072;17.174;2023-03-21T09:55:18;100295.41;;;10.95;100.00
9077;BME280;4574;51.072;17.174;2023-03-21T09:57:49;100287.69;;;11.01;100.00
9077;BME280;4574;51.072;17.174;2023-03-21T10:00:24;100289.84;;;10.88;100.00
9077;BME280;4574;51.072;17.174;2023-03-21T10:02:58;100288.53;;;11.02;100.00
9077;BME280;4574;51.072;17.174;2023-03-21T10:05:30;100285.00;;;11.11;100.00
9077;BME280;4574;51.072;17.174;2023-03-21T10:08:03;100287.41;;;11.04;100.00
9077;BME280;4574;51.072;17.174;2023-03-21T10:10:35;100283.50;;;11.08;100.00
9077;BME280;4574;51.072;17.174;2023-03-21T10:13:13;100289.47;;;11.10;100.00
9077;BME280;4574;51.072;17.174;2023-03-21T10:15:43;100280.25;;;11.14;100.00
9077;BME280;4574;51.072;17.174;2023-03-21T10:18:18;100286.38;;;11.15;100.00
9077;BME280;4574;51.072;17.174;2023-03-21T10:20:50;100271.31;;;11.15;100.00
9077;BME280;4574;51.072;17.174;2023-03-21T10:23:21;100271.84;;;11.19;100.00
9077;BME280;4574;51.072;17.174;2023-03-21T10:25:54;100280.88;;;11.26;100.00
9077;BME280;4574;51.072;17.174;2023-03-21T10:28:26;100289.38;;;11.29;100.00
9077;BME280;4574;51.072;17.174;2023-03-21T10:31:06;100286.72;;;11.29;100.00
9077;BME280;4574;51.072;17.174;2023-03-21T10:33:36;100282.19;;;11.39;100.00
9077;BME280;4574;51.072;17.174;2023-03-21T10:36:10;100285.44;;;11.51;100.00
9077;BME280;4574;51.072;17.174;2023-03-21T10:38:43;100287.19;;;11.60;100.00
9077;BME280;4574;51.072;17.174;2023-03-21T10:41:13;100289.94;;;11.68;100.00
9077;BME280;4574;51.072;17.174;2023-03-21T10:43:42;100282.59;;;11.79;100.00
9077;BME280;4574;51.072;17.174;2023-03-21T10:46:16;100287.72;;;11.81;100.00
9077;BME280;4574;51.072;17.174;2023-03-21T10:48:50;100283.41;;;11.80;100.00
9077;BME280;4574;51.072;17.174;2023-03-21T10:51:22;100279.69;;;11.90;100.00
9077;BME280;4574;51.072;17.174;2023-03-21T10:53:56;100284.56;;;11.95;100.00
9077;BME280;4574;51.072;17.174;2023-03-21T10:56:27;100289.06;;;12.02;100.00
9077;BME280;4574;51.072;17.174;2023-03-21T10:58:58;100271.03;;;12.05;100.00
9077;BME280;4574;51.072;17.174;2023-03-21T11:01:31;100288.56;;;12.24;100.00
9077;BME280;4574;51.072;17.174;2023-03-21T11:04:06;100287.63;;;12.33;100.00
9077;BME280;4574;51.072;17.174;2023-03-21T11:06:40;100278.28;;;12.46;100.00
9077;BME280;4574;51.072;17.174;2023-03-21T11:09:14;100284.94;;;12.50;100.00
9077;BME280;4574;51.072;17.174;2023-03-21T11:11:49;100271.41;;;12.61;100.00
9077;BME280;4574;51.072;17.174;2023-03-21T11:14:30;100267.94;;;12.69;100.00
9077;BME280;4574;51.072;17.174;2023-03-21T11:16:59;100268.13;;;12.75;100.00
9077;BME280;4574;51.072;17.174;2023-03-21T11:19:35;100250.66;;;12.65;100.00
9077;BME280;4574;51.072;17.174;2023-03-21T11:22:06;100275.56;;;12.72;100.00
9077;BME280;4574;51.072;17.174;2023-03-21T11:24:35;100273.25;;;12.69;100.00
9077;BME280;4574;51.072;17.174;2023-03-21T11:27:06;100265.09;;;12.62;100.00
9077;BME280;4574;51.072;17.174;2023-03-21T11:29:36;100257.75;;;12.56;100.00
9077;BME280;4574;51.072;17.174;2023-03-21T11:32:12;100263.75;;;12.58;100.00
9077;BME280;4574;51.072;17.174;2023-03-21T11:34:45;100262.03;;;12.49;100.00
9077;BME280;4574;51.072;17.174;2023-03-21T11:37:23;100260.72;;;12.53;100.00
9077;BME280;4574;51.072;17.174;2023-03-21T11:39:59;100258.44;;;12.58;100.00
9077;BME280;4574;51.072;17.174;2023-03-21T11:42:40;100260.09;;;12.59;100.00
9077;BME280;4574;51.072;17.174;2023-03-21T11:45:14;100252.13;;;12.59;100.00
9077;BME280;4574;51.072;17.174;2023-03-21T11:47:44;100252.44;;;12.56;100.00
9077;BME280;4574;51.072;17.174;2023-03-21T11:50:18;100254.94;;;12.58;100.00
9077;BME280;4574;51.072;17.174;2023-03-21T11:52:57;100240.03;;;12.65;100.00
9077;BME280;4574;51.072;17.174;2023-03-21T11:55:35;100254.00;;;12.75;100.00
9077;BME280;4574;51.072;17.174;2023-03-21T11:58:21;100225.56;;;12.59;100.00
9077;BME280;4574;51.072;17.174;2023-03-21T12:01:04;100242.34;;;12.68;100.00
9077;BME280;4574;51.072;17.174;2023-03-21T12:04:09;100247.66;;;12.68;100.00
9077;BME280;4574;51.072;17.174;2023-03-21T12:06:47;100236.22;;;12.67;100.00
9077;BME280;4574;51.072;17.174;2023-03-21T12:09:36;100242.53;;;12.66;100.00
9077;BME280;4574;51.072;17.174;2023-03-21T12:12:18;100235.00;;;12.54;100.00
9077;BME280;4574;51.072;17.174;2023-03-21T12:15:09;100233.22;;;12.62;100.00
9077;BME280;4574;51.072;17.174;2023-03-21T12:17:49;100222.09;;;12.67;100.00
9077;BME280;4574;51.072;17.174;2023-03-21T12:20:37;100216.94;;;12.57;100.00
9077;BME280;4574;51.072;17.174;2023-03-21T12:23:18;100224.59;;;12.60;100.00
9077;BME280;4574;51.072;17.174;2023-03-21T12:26:09;100226.25;;;12.61;100.00
9077;BME280;4574;51.072;17.174;2023-03-21T12:28:53;100219.97;;;12.70;100.00
9077;BME280;4574;51.072;17.174;2023-03-21T12:31:27;100219.19;;;12.78;100.00
9077;BME280;4574;51.072;17.174;2023-03-21T12:34:12;100213.66;;;12.71;100.00
9077;BME280;4574;51.072;17.174;2023-03-21T12:37:04;100212.00;;;12.70;100.00
9077;BME280;4574;51.072;17.174;2023-03-21T12:39:36;100218.53;;;12.84;100.00
9077;BME280;4574;51.072;17.174;2023-03-21T12:45:11;100206.81;;;12.94;100.00
9077;BME280;4574;51.072;17.174;2023-03-21T12:47:46;100205.50;;;13.06;100.00
9077;BME280;4574;51.072;17.174;2023-03-21T12:50:19;100202.50;;;13.01;100.00
9077;BME280;4574;51.072;17.174;2023-03-21T12:52:53;100191.84;;;12.93;100.00
9077;BME280;4574;51.072;17.174;2023-03-21T12:55:25;100195.53;;;13.00;100.00
9077;BME280;4574;51.072;17.174;2023-03-21T12:58:00;100190.88;;;13.02;100.00
9077;BME280;4574;51.072;17.174;2023-03-21T13:00:34;100194.56;;;13.17;100.00
9077;BME280;4574;51.072;17.174;2023-03-21T13:03:10;100200.41;;;13.21;100.00
9077;BME280;4574;51.072;17.174;2023-03-21T13:05:48;100187.59;;;13.24;100.00
9077;BME280;4574;51.072;17.174;2023-03-21T13:08:22;100185.78;;;13.25;100.00
9077;BME280;4574;51.072;17.174;2023-03-21T13:10:54;100184.59;;;13.11;100.00
9077;BME280;4574;51.072;17.174;2023-03-21T13:13:32;100188.41;;;13.01;100.00
9077;BME280;4574;51.072;17.174;2023-03-21T13:16:07;100175.47;;;13.14;100.00
9077;BME280;4574;51.072;17.174;2023-03-21T13:18:48;100175.81;;;13.19;100.00
9077;BME280;4574;51.072;17.174;2023-03-21T13:21:35;100175.47;;;13.14;100.00
9077;BME280;4574;51.072;17.174;2023-03-21T13:24:18;100177.59;;;13.10;100.00
9077;BME280;4574;51.072;17.174;2023-03-21T13:26:48;100163.34;;;13.19;100.00
9077;BME280;4574;51.072;17.174;2023-03-21T13:29:25;100173.31;;;13.25;100.00